Time;durP1;ratioP1;P1;durP2;ratioP2;P2;SDS_P1;SDS_P2;PMS_P1;PMS_P2;Temp;Humidity;BMP_temperature;BMP_pressure;BME280_temperature;BME280_humidity;BME280_pressure;Samples;Min_cycle;Max_cycle;Signal;HPM_P1;HPM_P2
2022/09/07 00:02:19;;;;;;;11.48;5.08;;;;;;;8.83;63.66;101267.13;1701765;84;27984;-75
2022/09/07 00:04:45;;;;;;;7.90;4.80;;;;;;;8.79;63.71;101270.60;1726653;82;26396;-75
2022/09/07 00:07:12;;;;;;;8.75;4.33;;;;;;;8.75;63.73;101265.23;1716555;82;25803;-75
2022/09/07 00:09:38;;;;;;;14.13;5.00;;;;;;;8.73;63.68;101261.05;1698055;84;25894;-76
2022/09/07 00:12:05;;;;;;;13.72;5.50;;;;;;;8.72;63.69;101259.39;1701534;84;25932;-75
2022/09/07 00:14:32;;;;;;;9.95;5.08;;;;;;;8.67;63.72;101258.53;1724324;82;28252;-75
2022/09/07 00:16:58;;;;;;;11.53;4.67;;;;;;;8.66;63.68;101260.03;1678328;84;25761;-75
2022/09/07 00:19:24;;;;;;;8.83;4.90;;;;;;;8.62;63.71;101251.48;1718022;80;25746;-76
2022/09/07 00:21:51;;;;;;;9.15;4.92;;;;;;;8.60;63.70;101252.66;1702037;84;25858;-76
2022/09/07 00:24:19;;;;;;;12.45;4.92;;;;;;;8.59;63.71;101249.14;1723174;82;25960;-76
2022/09/07 00:26:45;;;;;;;9.18;4.90;;;;;;;8.60;63.82;101252.66;1702461;82;28089;-75
2022/09/07 00:29:12;;;;;;;10.70;5.08;;;;;;;8.59;63.83;101253.64;1700924;84;25968;-75
2022/09/07 00:31:38;;;;;;;11.43;5.47;;;;;;;8.57;63.91;101252.47;1725347;83;25248;-75
2022/09/07 00:34:05;;;;;;;11.08;5.15;;;;;;;8.57;63.92;101251.13;1724832;82;26492;-75
2022/09/07 00:36:32;;;;;;;9.25;5.10;;;;;;;8.52;63.82;101248.94;1725763;83;25918;-75
2022/09/07 00:38:58;;;;;;;10.18;5.37;;;;;;;8.47;63.94;101244.55;1715575;82;28187;-77
2022/09/07 00:41:25;;;;;;;13.28;6.00;;;;;;;8.44;63.91;101243.55;1749889;81;26387;-77
2022/09/07 00:43:56;;;;;;;9.68;4.53;;;;;;;8.42;63.91;101249.55;1735510;81;26014;-77
2022/09/07 00:46:28;;;;;;;;;;;;;;;8.40;63.96;101257.36;1750782;81;26339;-77
2022/09/07 00:49:02;;;;;;;8.45;4.53;;;;;;;8.34;64.08;101251.33;1752814;80;25784;-76
2022/09/07 00:51:45;;;;;;;10.60;5.42;;;;;;;8.29;64.06;101250.45;1671879;82;27477;-76
2022/09/07 00:54:20;;;;;;;9.78;5.00;;;;;;;8.27;64.05;101246.26;1750848;81;26114;-76
2022/09/07 00:56:49;;;;;;;11.50;5.35;;;;;;;8.22;64.21;101244.02;1751505;80;25691;-76
2022/09/07 00:59:20;;;;;;;8.38;4.67;;;;;;;8.16;64.41;101245.14;1736502;80;25549;-76
2022/09/07 01:01:47;;;;;;;7.70;4.72;;;;;;;8.12;64.39;101241.95;1740616;81;25286;-76
2022/09/07 01:04:15;;;;;;;7.42;4.12;;;;;;;8.08;64.50;101245.93;1736662;81;27453;-77
2022/09/07 01:06:42;;;;;;;9.30;4.22;;;;;;;8.03;64.57;101250.87;1732990;81;25731;-77
2022/09/07 01:09:12;;;;;;;4.37;3.30;;;;;;;8.02;64.64;101251.86;1727614;82;25749;-77
2022/09/07 01:11:40;;;;;;;8.05;4.15;;;;;;;8.01;64.66;101257.36;1740721;81;26005;-77
2022/09/07 01:14:10;;;;;;;8.13;4.75;;;;;;;7.96;64.58;101253.81;1726889;81;25795;-77
2022/09/07 01:17:16;;;;;;;10.08;5.22;;;;;;;7.96;64.62;101252.48;1741100;81;27531;-76
2022/09/07 01:20:24;;;;;;;10.32;4.78;;;;;;;7.90;64.73;101240.25;1709994;79;25768;-76
2022/09/07 01:23:11;;;;;;;8.15;4.60;;;;;;;7.92;64.64;101244.94;1726077;81;26120;-77
2022/09/07 01:26:15;;;;;;;11.25;5.60;;;;;;;7.89;64.72;101247.93;1737458;81;25354;-76
2022/09/07 01:28:42;;;;;;;13.80;6.65;;;;;;;7.89;64.89;101247.93;1740317;79;26505;-77
2022/09/07 01:31:26;;;;;;;11.25;6.03;;;;;;;7.84;64.83;101251.54;1738915;81;27449;-77
2022/09/07 01:34:10;;;;;;;14.38;6.15;;;;;;;7.82;64.86;101247.70;1726720;81;25912;-76
2022/09/07 01:36:48;;;;;;;13.98;5.97;;;;;;;7.79;64.86;101244.84;1725219;81;25721;-76
2022/09/07 01:39:17;;;;;;;13.45;5.83;;;;;;;7.75;64.90;101246.14;1734244;81;25827;-77
2022/09/07 01:42:00;;;;;;;13.28;5.85;;;;;;;7.75;64.93;101247.96;1736277;81;25911;-76
2022/09/07 01:44:34;;;;;;;11.08;5.83;;;;;;;7.74;64.94;101254.30;1739635;81;28268;-76
2022/09/07 01:47:21;;;;;;;12.98;6.12;;;;;;;7.70;64.93;101252.41;1717220;81;26685;-76
2022/09/07 01:49:59;;;;;;;12.58;5.95;;;;;;;7.69;64.96;101256.09;1730195;81;25859;-76
2022/09/07 01:52:34;;;;;;;12.75;6.08;;;;;;;7.66;64.99;101260.37;1736166;81;26482;-76
2022/09/07 01:55:33;;;;;;;11.35;6.20;;;;;;;7.61;65.08;101252.50;1726017;81;25735;-77
2022/09/07 01:58:18;;;;;;;13.00;5.95;;;;;;;7.57;65.04;101255.95;1748500;76;27539;-76
2022/09/07 02:00:51;;;;;;;8.03;4.80;;;;;;;7.51;65.01;101251.23;1763121;80;25748;-76
2022/09/07 02:03:32;;;;;;;8.93;4.62;;;;;;;7.45;65.19;101246.50;1747459;81;25801;-76
2022/09/07 02:06:19;;;;;;;8.88;4.58;;;;;;;7.40;65.32;101247.44;1762839;80;26392;-75
2022/09/07 02:08:51;;;;;;;11.85;4.08;;;;;;;7.35;65.32;101245.73;1737428;82;25782;-76
2022/09/07 02:11:22;;;;;;;6.00;3.70;;;;;;;7.27;65.43;101245.62;1760601;81;27446;-76
2022/09/07 02:13:53;;;;;;;12.43;3.80;;;;;;;7.23;65.39;101246.92;1770584;80;25703;-76
2022/09/07 02:16:30;;;;;;;;;;;;;;;7.19;65.52;101241.55;1749596;78;25766;-76
2022/09/07 02:19:10;;;;;;;6.30;3.52;;;;;;;7.15;65.59;101244.17;1754865;80;25904;-76
2022/09/07 02:21:40;;;;;;;10.23;4.00;;;;;;;7.09;65.63;101235.45;1746592;80;25311;-76
2022/09/07 02:24:16;;;;;;;;;;;;;;;7.04;65.71;101241.70;1760177;80;27468;-76
2022/09/07 02:26:47;;;;;;;7.00;3.75;;;;;;;6.98;65.73;101239.64;1760893;78;26021;-76
2022/09/07 02:29:14;;;;;;;5.87;3.83;;;;;;;6.91;65.93;101239.39;1769144;79;26394;-76
2022/09/07 02:31:41;;;;;;;5.55;3.67;;;;;;;6.85;65.90;101237.31;1760934;81;25766;-76
2022/09/07 02:34:07;;;;;;;6.40;4.00;;;;;;;6.81;65.98;101236.42;1772328;80;26458;-76
2022/09/07 02:36:39;;;;;;;7.53;4.35;;;;;;;6.78;66.11;101237.55;1762729;80;27451;-76
2022/09/07 02:39:05;;;;;;;5.47;3.47;;;;;;;6.78;66.03;101235.38;1762569;79;25826;-76
2022/09/07 02:41:39;;;;;;;6.22;3.50;;;;;;;6.75;66.00;101235.69;1720680;81;25760;-76
2022/09/07 02:44:11;;;;;;;7.25;4.50;;;;;;;6.71;66.07;101227.65;1764336;79;25774;-76
2022/09/07 02:46:43;;;;;;;6.45;3.77;;;;;;;6.67;66.12;101229.74;1728540;82;25887;-76
2022/09/07 02:49:21;;;;;;;5.65;3.33;;;;;;;6.64;66.15;101223.40;1739678;80;28259;-76
2022/09/07 02:52:08;;;;;;;6.65;4.00;;;;;;;6.63;66.21;101217.72;1763385;79;25817;-76
2022/09/07 02:54:42;;;;;;;6.03;4.00;;;;;;;6.62;66.16;101217.88;1733560;79;25810;-76
2022/09/07 02:57:17;;;;;;;7.20;3.95;;;;;;;6.60;66.26;101219.84;1733502;81;26377;-76
2022/09/07 03:00:10;;;;;;;5.75;3.77;;;;;;;6.56;66.36;101217.98;1731497;78;25732;-76
2022/09/07 03:02:56;;;;;;;5.75;3.30;;;;;;;6.55;66.27;101220.28;1734447;81;28617;-77
2022/09/07 03:05:40;;;;;;;8.00;3.85;;;;;;;6.52;66.56;101221.07;1737321;81;25742;-77
2022/09/07 03:08:15;;;;;;;6.12;3.12;;;;;;;6.50;66.55;101220.37;1733916;81;25896;-77
2022/09/07 03:10:43;;;;;;;4.42;3.30;;;;;;;6.48;66.38;101225.83;1739726;81;25900;-77
2022/09/07 03:13:25;;;;;;;7.92;3.60;;;;;;;6.44;66.48;101214.28;1715665;82;25698;-77
2022/09/07 03:15:52;;;;;;;5.72;3.27;;;;;;;6.42;66.52;101221.09;1699993;83;27477;-76
2022/09/07 03:18:18;;;;;;;4.45;3.30;;;;;;;6.38;66.60;101222.36;1693815;83;25899;-76
2022/09/07 03:20:45;;;;;;;7.08;3.60;;;;;;;6.34;66.55;101226.78;1703954;83;25824;-76
2022/09/07 03:23:11;;;;;;;7.35;3.90;;;;;;;6.29;66.49;101219.75;1701655;81;26265;-77
2022/09/07 03:25:38;;;;;;;7.62;3.42;;;;;;;6.27;66.54;101227.00;1698132;83;25846;-76
2022/09/07 03:28:05;;;;;;;5.28;3.47;;;;;;;6.22;66.42;101224.80;1695620;83;27465;-76
2022/09/07 03:30:32;;;;;;;6.08;4.10;;;;;;;6.16;66.32;101222.20;1718720;82;25941;-76
2022/09/07 03:32:58;;;;;;;7.05;3.58;;;;;;;6.09;66.34;101221.09;1723854;82;26029;-77
2022/09/07 03:35:25;;;;;;;5.53;3.47;;;;;;;6.06;66.44;101220.06;1728062;81;26220;-77
2022/09/07 03:37:51;;;;;;;7.95;4.25;;;;;;;6.01;66.47;101224.96;1686005;84;25929;-77
2022/09/07 03:40:18;;;;;;;6.20;3.65;;;;;;;5.99;66.51;101219.43;1715873;82;28201;-76
2022/09/07 03:42:49;;;;;;;4.00;3.37;;;;;;;5.95;66.52;101218.04;1709539;82;25808;-77
2022/09/07 03:45:16;;;;;;;5.80;3.45;;;;;;;5.90;66.52;101217.13;1684266;83;26485;-77
2022/09/07 03:47:42;;;;;;;4.53;3.02;;;;;;;5.86;66.50;101209.61;1700441;83;26456;-77
2022/09/07 03:50:09;;;;;;;6.20;3.60;;;;;;;5.78;66.37;101212.08;1658980;84;25757;-76
2022/09/07 03:52:36;;;;;;;7.10;3.65;;;;;;;5.74;66.54;101216.00;1690342;83;27478;-77
2022/09/07 03:55:04;;;;;;;6.72;3.58;;;;;;;5.71;66.75;101216.30;1665125;83;25892;-76
2022/09/07 03:57:30;;;;;;;3.98;3.27;;;;;;;5.67;66.85;101213.55;1703572;83;25839;-77
2022/09/07 03:59:57;;;;;;;5.28;3.60;;;;;;;5.65;67.02;101214.17;1750189;79;26512;-76
2022/09/07 04:02:23;;;;;;;5.25;3.45;;;;;;;5.64;67.03;101221.34;1733223;80;25668;-77
2022/09/07 04:04:49;;;;;;;8.88;3.45;;;;;;;5.60;66.97;101215.95;1724562;80;27448;-76
2022/09/07 04:07:16;;;;;;;9.23;4.70;;;;;;;5.55;66.87;101213.34;1770988;79;26434;-76
2022/09/07 04:09:42;;;;;;;6.50;4.03;;;;;;;5.51;66.92;101217.27;1769974;79;25767;-77
2022/09/07 04:12:08;;;;;;;6.12;4.37;;;;;;;5.48;66.99;101213.91;1768394;79;25768;-76
2022/09/07 04:14:34;;;;;;;6.65;4.10;;;;;;;5.47;67.16;101222.03;1754079;80;25244;-76
2022/09/07 04:17:01;;;;;;;5.97;3.62;;;;;;;5.44;67.19;101224.47;1752897;81;28286;-77
2022/09/07 04:19:29;;;;;;;7.10;3.90;;;;;;;5.42;67.17;101220.27;1749390;77;26012;-76
2022/09/07 04:21:55;;;;;;;6.53;3.95;;;;;;;5.39;67.19;101217.39;1747773;81;26360;-76
2022/09/07 04:24:21;;;;;;;8.13;3.92;;;;;;;5.36;67.13;101224.81;1747037;81;25830;-77
2022/09/07 04:26:48;;;;;;;8.00;4.28;;;;;;;5.35;67.34;101226.62;1752267;80;25759;-77
2022/09/07 04:29:14;;;;;;;10.60;3.90;;;;;;;5.32;67.32;101226.06;1744460;80;27522;-76
2022/09/07 04:31:40;;;;;;;7.05;4.05;;;;;;;5.31;67.54;101223.05;1744140;80;26489;-77
2022/09/07 04:34:09;;;;;;;7.28;4.15;;;;;;;5.31;67.82;101227.02;1745066;80;25968;-77
2022/09/07 04:36:35;;;;;;;12.35;4.65;;;;;;;5.30;67.79;101226.18;1773328;79;26818;-77
2022/09/07 04:39:04;;;;;;;7.83;4.25;;;;;;;5.28;67.91;101223.34;1754169;79;25807;-77
2022/09/07 04:41:33;;;;;;;7.15;3.92;;;;;;;5.27;68.10;101222.97;1774628;79;28212;-76
2022/09/07 04:44:02;;;;;;;9.50;4.37;;;;;;;5.23;68.20;101230.38;1763301;79;26005;-77
2022/09/07 04:46:35;;;;;;;7.80;4.30;;;;;;;5.21;68.39;101230.16;1773923;79;25777;-77
2022/09/07 04:49:06;;;;;;;10.75;4.90;;;;;;;5.17;68.53;101221.64;1771841;79;25750;-77
2022/09/07 04:51:33;;;;;;;7.92;4.65;;;;;;;5.17;68.75;101236.25;1740461;80;26036;-76
2022/09/07 04:54:01;;;;;;;7.15;4.53;;;;;;;5.13;69.01;101222.86;1749070;80;27466;-76
2022/09/07 04:56:29;;;;;;;7.40;4.35;;;;;;;5.21;69.16;101240.30;1745308;80;25779;-76
2022/09/07 04:58:55;;;;;;;12.13;4.62;;;;;;;5.22;69.35;101236.66;1770083;79;25853;-77
2022/09/07 05:01:24;;;;;;;12.13;3.90;;;;;;;5.19;69.68;101238.28;1752663;80;25736;-76
2022/09/07 05:03:51;;;;;;;7.55;4.17;;;;;;;5.16;69.98;101231.90;1749086;80;25672;-77
2022/09/07 05:06:20;;;;;;;8.55;3.87;;;;;;;5.14;70.24;101234.33;1751499;81;28008;-76
2022/09/07 05:08:50;;;;;;;6.45;3.98;;;;;;;5.15;70.47;101242.67;1744966;78;27162;-77
2022/09/07 05:11:18;;;;;;;10.18;4.20;;;;;;;5.18;70.66;101237.06;1740743;81;25776;-77
2022/09/07 05:13:45;;;;;;;6.70;4.12;;;;;;;5.22;70.85;101233.16;1765316;80;26331;-77
2022/09/07 05:16:17;;;;;;;13.58;4.62;;;;;;;5.27;71.10;101234.44;1753614;81;25694;-77
2022/09/07 05:18:49;;;;;;;7.33;4.53;;;;;;;5.31;71.26;101229.20;1734005;80;27458;-77
2022/09/07 05:21:20;;;;;;;7.60;4.70;;;;;;;5.39;71.37;101229.34;1734061;80;25932;-75
2022/09/07 05:23:54;;;;;;;8.78;4.33;;;;;;;5.45;71.62;101230.11;1746065;81;25729;-75
2022/09/07 05:26:23;;;;;;;8.85;4.05;;;;;;;5.53;71.84;101231.25;1757811;81;26322;-75
2022/09/07 05:28:50;;;;;;;6.95;3.92;;;;;;;5.61;72.06;101232.72;1775375;79;25672;-75
2022/09/07 05:31:20;;;;;;;8.33;4.00;;;;;;;5.69;72.16;101235.02;1762297;80;27428;-74
2022/09/07 05:33:52;;;;;;;9.20;4.12;;;;;;;5.79;72.33;101235.03;1774436;79;32805;-75
2022/09/07 05:36:20;;;;;;;9.60;5.28;;;;;;;5.90;72.52;101238.91;1741742;80;25717;-75
2022/09/07 05:38:46;;;;;;;5.25;3.85;;;;;;;6.00;72.82;101235.27;1735768;80;26198;-75
2022/09/07 05:41:20;;;;;;;7.87;3.92;;;;;;;6.11;73.14;101231.61;1729587;81;25509;-75
2022/09/07 05:43:47;;;;;;;8.68;4.08;;;;;;;6.22;73.36;101228.27;1766632;79;28352;-74
2022/09/07 05:46:15;;;;;;;6.08;4.00;;;;;;;6.34;73.78;101228.11;1784127;79;25823;-75
2022/09/07 05:48:42;;;;;;;7.75;3.83;;;;;;;6.43;73.77;101221.45;1774666;79;26542;-76
2022/09/07 05:51:11;;;;;;;6.70;4.45;;;;;;;6.55;73.92;101225.59;1780796;79;25865;-76
2022/09/07 05:53:40;;;;;;;6.92;4.20;;;;;;;6.67;74.25;101224.94;1786929;79;25936;-75
2022/09/07 05:56:07;;;;;;;11.78;4.42;;;;;;;6.79;74.52;101228.59;1777047;79;27464;-76
2022/09/07 05:58:35;;;;;;;6.62;4.37;;;;;;;6.91;74.41;101225.22;1736320;80;25994;-76
2022/09/07 06:01:08;;;;;;;5.72;3.83;;;;;;;7.03;74.48;101230.20;1760137;80;26549;-75
2022/09/07 06:03:37;;;;;;;6.78;4.83;;;;;;;7.17;74.64;101225.36;1741422;80;26838;-75
2022/09/07 06:06:08;;;;;;;6.90;3.60;;;;;;;7.32;74.61;101225.20;1744612;81;25758;-75
2022/09/07 06:08:37;;;;;;;6.33;3.87;;;;;;;7.46;74.57;101219.36;1755108;78;28321;-75
2022/09/07 06:11:10;;;;;;;10.58;3.65;;;;;;;7.60;74.53;101217.48;1746340;79;25878;-75
2022/09/07 06:13:38;;;;;;;6.35;3.42;;;;;;;7.74;74.41;101205.78;1758845;81;25808;-76
2022/09/07 06:16:07;;;;;;;8.18;3.50;;;;;;;7.89;74.42;101198.58;1746454;80;26421;-76
2022/09/07 06:18:37;;;;;;;8.03;3.98;;;;;;;8.02;74.49;101189.69;1748824;79;26011;-76
2022/09/07 06:21:08;;;;;;;11.25;3.95;;;;;;;8.14;74.67;101194.60;1734142;82;27894;-77
2022/09/07 06:23:36;;;;;;;8.55;3.52;;;;;;;8.29;74.66;101190.89;1732021;80;25773;-76
2022/09/07 06:26:04;;;;;;;8.40;3.47;;;;;;;8.43;74.88;101195.14;1723620;80;25746;-76
2022/09/07 06:28:34;;;;;;;6.87;4.00;;;;;;;8.58;74.84;101191.38;1733569;80;25447;-76
2022/09/07 06:31:21;;;;;;;12.20;3.90;;;;;;;8.74;75.25;101187.46;1713072;83;25900;-77
2022/09/07 06:33:48;;;;;;;6.20;4.03;;;;;;;8.89;75.35;101189.02;1726266;81;28133;-76
2022/09/07 06:36:21;;;;;;;6.72;3.20;;;;;;;9.07;75.44;101201.26;1723602;82;25562;-76
2022/09/07 06:38:49;;;;;;;6.42;3.90;;;;;;;9.25;75.91;101201.15;1724878;81;25767;-76
2022/09/07 06:41:21;;;;;;;5.95;3.40;;;;;;;9.41;75.53;101205.18;1720187;82;26229;-76
2022/09/07 06:43:48;;;;;;;5.97;3.75;;;;;;;9.59;75.29;101205.89;1709146;82;25903;-76
2022/09/07 06:46:15;;;;;;;6.78;3.70;;;;;;;9.76;75.32;101206.23;1720514;82;27528;-76
2022/09/07 06:48:42;;;;;;;4.50;3.15;;;;;;;9.94;74.90;101201.54;1711065;83;26158;-76
2022/09/07 06:51:17;;;;;;;5.87;3.40;;;;;;;10.13;74.75;101197.73;1720538;83;25716;-78
2022/09/07 06:53:45;;;;;;;6.15;3.80;;;;;;;10.33;74.28;101206.23;1719018;81;27878;-77
2022/09/07 06:56:15;;;;;;;5.95;3.15;;;;;;;10.52;73.16;101206.67;1722001;81;25786;-78
2022/09/07 06:58:41;;;;;;;10.13;3.50;;;;;;;10.70;72.37;101208.64;1732608;79;28239;-77
2022/09/07 07:01:17;;;;;;;5.53;3.25;;;;;;;10.87;72.76;101210.75;1729501;81;25740;-77
2022/09/07 07:03:44;;;;;;;5.35;2.47;;;;;;;11.04;72.00;101220.88;1734592;81;25742;-78
2022/09/07 07:06:11;;;;;;;9.15;3.20;;;;;;;11.21;72.02;101224.66;1730630;81;26253;-78
2022/09/07 07:08:39;;;;;;;4.58;3.10;;;;;;;11.36;71.42;101220.22;1727707;80;25884;-80
2022/09/07 07:11:11;;;;;;;5.78;2.85;;;;;;;11.52;71.17;101224.16;1724584;81;28299;-79
2022/09/07 07:13:40;;;;;;;7.37;3.30;;;;;;;11.68;70.37;101227.75;1725510;81;25754;-77
2022/09/07 07:16:10;;;;;;;9.55;3.65;;;;;;;11.83;69.35;101229.98;1751716;81;25833;-77
2022/09/07 07:18:36;;;;;;;6.80;2.87;;;;;;;11.99;68.49;101231.22;1759951;80;26190;-75
2022/09/07 07:21:06;;;;;;;12.20;2.33;;;;;;;12.13;67.97;101229.07;1755417;81;25742;-76
2022/09/07 07:23:34;;;;;;;8.90;2.23;;;;;;;12.29;67.94;101231.62;1755359;80;28364;-75
2022/09/07 07:26:08;;;;;;;7.58;2.70;;;;;;;12.44;67.33;101238.36;1755747;80;25729;-76
2022/09/07 07:28:34;;;;;;;5.40;1.98;;;;;;;12.61;66.43;101230.45;1754735;81;26278;-76
2022/09/07 07:31:03;;;;;;;6.78;2.42;;;;;;;12.76;65.60;101225.92;1759432;80;26204;-76
2022/09/07 07:33:33;;;;;;;4.17;1.80;;;;;;;12.91;64.38;101222.72;1755920;80;25772;-76
2022/09/07 07:36:18;;;;;;;4.62;1.92;;;;;;;13.06;64.11;101219.03;1755750;81;28342;-76
2022/09/07 07:38:48;;;;;;;4.15;1.67;;;;;;;13.25;63.20;101215.41;1755869;81;25728;-76
2022/09/07 07:41:17;;;;;;;4.72;1.60;;;;;;;13.44;62.24;101216.98;1755981;80;25744;-77
2022/09/07 07:43:43;;;;;;;1.92;1.35;;;;;;;13.60;61.23;101207.84;1755903;81;26410;-76
2022/09/07 07:46:15;;;;;;;3.80;2.00;;;;;;;13.75;60.45;101212.13;1755320;81;25709;-76
2022/09/07 07:48:44;;;;;;;5.12;1.52;;;;;;;13.89;59.77;101205.86;1754299;78;27414;-77
2022/09/07 07:51:10;;;;;;;6.08;1.55;;;;;;;14.04;59.10;101203.59;1755243;81;25878;-76
2022/09/07 07:53:39;;;;;;;2.30;1.35;;;;;;;14.16;58.00;101202.02;1756615;81;25855;-76
2022/09/07 07:56:08;;;;;;;3.55;1.20;;;;;;;14.28;57.38;101198.62;1751376;81;25785;-76
2022/09/07 07:58:37;;;;;;;3.12;1.40;;;;;;;14.42;56.46;101204.44;1771105;79;26090;-76
2022/09/07 08:01:10;;;;;;;3.83;1.30;;;;;;;14.53;54.92;101196.31;1789201;78;27081;-76
2022/09/07 08:03:39;;;;;;;6.83;1.30;;;;;;;14.64;54.41;101197.11;1782002;79;26474;-75
2022/09/07 08:06:16;;;;;;;3.10;1.65;;;;;;;14.76;53.94;101194.16;1792994;79;25749;-76
2022/09/07 08:08:43;;;;;;;1.72;1.00;;;;;;;14.87;53.14;101199.00;1785229;79;26242;-77
2022/09/07 08:11:14;;;;;;;3.67;1.20;;;;;;;14.96;52.29;101195.11;1771141;80;26362;-76
2022/09/07 08:13:41;;;;;;;;;;;;;;;15.05;51.84;101195.77;1771553;80;27476;-76
2022/09/07 08:16:10;;;;;;;2.83;1.27;;;;;;;15.13;50.95;101184.28;1756116;80;26406;-77
2022/09/07 08:18:38;;;;;;;1.30;0.95;;;;;;;15.21;51.06;101190.84;1716827;82;25287;-75
2022/09/07 08:21:12;;;;;;;4.67;1.05;;;;;;;15.27;50.50;101188.67;1721173;81;25781;-76
2022/09/07 08:23:40;;;;;;;5.28;0.88;;;;;;;15.33;50.17;101186.51;1722294;81;25893;-76
2022/09/07 08:26:07;;;;;;;2.35;1.20;;;;;;;15.42;49.69;101182.59;1765478;80;27610;-76
2022/09/07 08:28:38;;;;;;;3.85;0.90;;;;;;;15.48;49.69;101178.81;1763621;80;26386;-76
2022/09/07 08:31:07;;;;;;;7.45;1.22;;;;;;;15.55;49.51;101188.57;1747568;80;26511;-75
2022/09/07 08:33:40;;;;;;;3.12;1.20;;;;;;;15.63;49.04;101181.63;1765493;80;26233;-74
2022/09/07 08:36:07;;;;;;;4.80;1.20;;;;;;;15.73;48.86;101175.83;1771374;80;25980;-75
2022/09/07 08:38:35;;;;;;;3.30;1.00;;;;;;;15.82;48.38;101175.95;1764447;79;27455;-75
2022/09/07 08:41:18;;;;;;;2.58;1.45;;;;;;;15.88;47.75;101173.25;1795194;79;25976;-74
2022/09/07 08:44:05;;;;;;;6.03;1.25;;;;;;;15.92;47.63;101167.75;1754990;81;25795;-76
2022/09/07 08:47:02;;;;;;;2.90;1.32;;;;;;;15.98;47.47;101165.55;1763184;81;25945;-77
2022/09/07 08:49:46;;;;;;;3.65;1.10;;;;;;;16.05;47.89;101165.55;1753918;80;25799;-77
2022/09/07 08:52:37;;;;;;;2.47;1.00;;;;;;;16.10;46.95;101157.67;1690178;80;28301;-76
2022/09/07 08:55:32;;;;;;;1.32;0.85;;;;;;;16.16;46.92;101154.12;1761652;81;26350;-75
2022/09/07 08:58:25;;;;;;;3.85;1.17;;;;;;;16.23;47.23;101154.92;1791802;79;25749;-76
2022/09/07 09:00:52;;;;;;;7.85;1.32;;;;;;;16.33;46.75;101159.91;1778544;79;25795;-77
2022/09/07 09:03:28;;;;;;;4.33;1.42;;;;;;;16.39;46.40;101157.20;1773265;79;25964;-76
2022/09/07 09:06:27;;;;;;;2.20;1.02;;;;;;;16.45;45.80;101159.05;1783883;79;28300;-76
2022/09/07 09:09:22;;;;;;;3.80;1.77;;;;;;;16.50;45.64;101156.59;1732839;81;25770;-76
2022/09/07 09:12:09;;;;;;;1.95;1.12;;;;;;;16.56;45.41;101151.68;1786302;79;25904;-75
2022/09/07 09:15:09;;;;;;;3.17;1.30;;;;;;;16.63;44.80;101140.33;1785920;79;25769;-75
2022/09/07 09:20:29;;;;;;;4.47;1.05;;;;;;;16.80;44.22;101127.16;1734244;81;26026;-75
2022/09/07 09:23:04;;;;;;;3.95;1.32;;;;;;;16.86;44.17;101134.41;1729436;81;25925;-74
2022/09/07 09:25:33;;;;;;;4.15;1.15;;;;;;;16.92;43.74;101129.48;1729089;81;25851;-75
2022/09/07 09:28:00;;;;;;;5.28;1.77;;;;;;;16.97;43.85;101125.62;1733862;81;25877;-75
2022/09/07 09:30:28;;;;;;;3.75;1.42;;;;;;;17.05;43.15;101133.48;1703896;83;25895;-75
2022/09/07 09:33:19;;;;;;;1.77;0.98;;;;;;;17.09;43.39;101134.70;1699916;82;27475;-74
2022/09/07 09:35:52;;;;;;;2.83;1.22;;;;;;;17.17;43.37;101130.39;1724796;81;25801;-76
2022/09/07 09:38:42;;;;;;;2.65;1.30;;;;;;;17.23;43.30;101118.72;1718507;82;25878;-75
2022/09/07 09:41:12;;;;;;;3.77;1.10;;;;;;;17.29;42.83;101118.36;1748430;80;25741;-75
2022/09/07 09:43:54;;;;;;;2.80;1.33;;;;;;;17.35;42.64;101116.96;1752191;80;25769;-75
2022/09/07 09:46:27;;;;;;;4.62;1.20;;;;;;;17.36;42.44;101115.93;1744963;80;27401;-75
2022/09/07 09:48:58;;;;;;;4.78;1.00;;;;;;;17.43;42.67;101115.86;1747980;80;25892;-76
2022/09/07 09:51:27;;;;;;;1.22;0.85;;;;;;;17.51;43.21;101117.00;1739059;81;25812;-75
2022/09/07 09:54:01;;;;;;;5.37;1.15;;;;;;;17.59;42.23;101101.83;1683795;84;26292;-74
2022/09/07 09:56:41;;;;;;;2.72;1.10;;;;;;;17.66;41.39;101109.39;1736883;80;26349;-75
2022/09/07 09:59:18;;;;;;;4.85;0.95;;;;;;;17.70;41.48;101106.53;1744171;81;28560;-75
2022/09/07 10:04:44;;;;;;;2.15;1.10;;;;;;;17.77;41.05;101103.77;1774941;80;25745;-75
2022/09/07 10:07:28;;;;;;;5.28;1.17;;;;;;;17.81;41.18;101100.92;1744242;81;26229;-74
2022/09/07 10:09:56;;;;;;;1.57;1.07;;;;;;;17.86;41.11;101103.26;1769586;79;26295;-75
2022/09/07 10:12:32;;;;;;;2.10;1.10;;;;;;;17.95;40.79;101103.80;1767327;80;27442;-75
2022/09/07 10:15:00;;;;;;;3.65;1.30;;;;;;;18.01;40.01;101101.55;1736909;81;25918;-76
2022/09/07 10:17:35;;;;;;;4.35;1.47;;;;;;;18.08;40.16;101099.62;1728523;82;25735;-76
2022/09/07 10:20:16;;;;;;;1.90;1.07;;;;;;;18.10;40.09;101089.38;1786315;79;26493;-76
2022/09/07 10:22:44;;;;;;;;;;;;;;;18.10;39.76;101086.67;1786406;80;26504;-75
2022/09/07 10:25:27;;;;;;;2.55;0.82;;;;;;;18.09;39.81;101088.54;1784713;78;28334;-75
2022/09/07 10:28:14;;;;;;;4.08;1.20;;;;;;;18.10;40.07;101088.02;1759783;79;25999;-75
2022/09/07 10:31:00;;;;;;;5.17;1.30;;;;;;;18.14;40.33;101081.93;1775023;79;25852;-76
2022/09/07 10:34:07;;;;;;;4.10;1.10;;;;;;;18.21;39.67;101079.16;1758523;81;26074;-76
2022/09/07 10:36:48;;;;;;;3.00;1.22;;;;;;;18.31;39.34;101078.93;1730718;80;25941;-75
2022/09/07 10:39:37;;;;;;;3.25;1.00;;;;;;;18.33;39.28;101070.04;1762779;80;28253;-75
2022/09/07 10:42:14;;;;;;;5.20;1.62;;;;;;;18.38;39.10;101071.56;1753818;81;25727;-76
2022/09/07 10:45:03;;;;;;;3.62;1.37;;;;;;;18.44;38.65;101070.68;1777701;80;25852;-76
2022/09/07 10:47:45;;;;;;;6.05;1.25;;;;;;;18.53;38.38;101067.66;1782669;80;25707;-76
2022/09/07 10:50:29;;;;;;;4.15;1.10;;;;;;;18.56;39.02;101066.69;1785912;78;25813;-76
2022/09/07 10:53:21;;;;;;;4.55;1.30;;;;;;;18.60;38.39;101064.34;1779844;80;28255;-75
2022/09/07 10:55:52;;;;;;;4.03;0.90;;;;;;;18.62;38.19;101056.80;1782963;80;25780;-75
2022/09/07 10:58:37;;;;;;;4.30;1.17;;;;;;;18.65;38.15;101047.66;1760625;80;25691;-76
2022/09/07 11:01:27;;;;;;;6.75;1.27;;;;;;;18.71;37.79;101058.15;1757770;81;25456;-76
2022/09/07 11:04:30;;;;;;;3.50;1.42;;;;;;;18.73;37.62;101052.80;1758630;78;25783;-75
2022/09/07 11:07:02;;;;;;;4.08;1.02;;;;;;;18.79;38.05;101056.47;1712038;82;28043;-76
2022/09/07 11:09:52;;;;;;;15.00;2.80;;;;;;;18.86;37.80;101058.02;1718935;81;26321;-76
2022/09/07 11:12:27;;;;;;;8.70;1.00;;;;;;;18.91;37.29;101055.45;1721070;81;25903;-76
2022/09/07 11:15:14;;;;;;;6.08;1.10;;;;;;;18.98;38.06;101049.94;1721078;82;25788;-76
2022/09/07 11:17:58;;;;;;;5.80;1.02;;;;;;;19.07;37.38;101043.97;1721628;81;25787;-76
2022/09/07 11:20:44;;;;;;;3.02;1.00;;;;;;;19.19;37.56;101043.98;1725022;82;27477;-76
2022/09/07 11:26:38;;;;;;;4.30;1.27;;;;;;;19.34;36.87;101035.39;1789405;75;25286;31
2022/09/07 11:29:44;;;;;;;2.15;1.02;;;;;;;19.43;36.82;101034.86;1792198;79;25636;-73
2022/09/07 11:32:16;;;;;;;9.38;1.20;;;;;;;19.50;36.88;101035.59;1791855;79;26517;-76
2022/09/07 11:34:49;;;;;;;4.22;1.10;;;;;;;19.58;37.16;101038.47;1773232;79;27472;-76
2022/09/07 11:37:24;;;;;;;2.90;1.40;;;;;;;19.58;36.21;101033.87;1787079;78;25896;-75
2022/09/07 11:40:02;;;;;;;5.25;0.93;;;;;;;19.61;36.33;101036.11;1781069;78;25793;-76
2022/09/07 11:42:40;;;;;;;4.30;0.80;;;;;;;19.68;36.48;101034.63;1789922;79;25854;-75
2022/09/07 11:45:36;;;;;;;4.35;1.27;;;;;;;19.73;36.52;101036.13;1787375;79;25927;-76
2022/09/07 11:48:22;;;;;;;1.22;0.90;;;;;;;19.75;35.96;101028.03;1780093;79;27434;-76
2022/09/07 11:50:56;;;;;;;2.95;0.90;;;;;;;19.77;36.01;101014.20;1787800;78;25805;-76
2022/09/07 11:53:27;;;;;;;4.85;1.00;;;;;;;19.74;35.17;101013.30;1745328;78;27036;-73
2022/09/07 11:55:57;;;;;;;;;;;;;;;19.74;35.43;101019.57;1804667;78;26299;-76
2022/09/07 11:58:44;;;;;;;5.30;1.00;;;;;;;19.82;35.77;101020.56;1793657;78;25807;-75
2022/09/07 12:01:46;;;;;;;5.75;1.07;;;;;;;19.88;35.17;101027.80;1803775;78;28445;-75
2022/09/07 12:04:53;;;;;;;10.60;1.67;;;;;;;19.98;35.45;101014.42;1787858;79;25957;-76
2022/09/07 12:07:48;;;;;;;3.33;1.02;;;;;;;20.02;35.51;101016.13;1767427;76;26545;-74
2022/09/07 12:14:17;;;;;;;13.72;2.10;;;;;;;20.20;35.40;101016.52;1763529;77;26831;-75